ASP weather

Alice Springs Airport
Alice Springs, Northern Territory, Australia

Public forecast

Using degrees Celsius for public forecast. Weather courtesy of forecast.io.

METAR (pilot weather report)

Retrieved 2018/09/21 13:00 UTC (19 minutes ago):

YBAS 211300Z AUTO 00000KT 9999 // NCD 10/09 Q1026 RF00.0/001.0 PRESENT WEATHER SENSOR US

TAF (pilot weather forecast)

Retrieved 2018/09/21 12:00 UTC (1 hour ago):

TAF YBAS 211105Z 2112/2212 13006KT 9999 SCT080 FM220000 12011KT CAVOK